createdAt,value
2018-04-25T00:00:59.409Z,5.50
2018-04-25T00:03:25.808Z,6.07
2018-04-25T00:05:52.235Z,6.27
2018-04-25T00:08:19.486Z,6.33
2018-04-25T00:10:46.994Z,6.20
2018-04-25T00:13:13.789Z,5.90
2018-04-25T00:15:41.956Z,4.40
2018-04-25T00:18:09.231Z,5.57
2018-04-25T00:20:35.928Z,7.20
2018-04-25T00:23:02.417Z,5.50
2018-04-25T00:25:29.560Z,5.73
2018-04-25T00:27:56.046Z,5.50
2018-04-25T00:30:22.434Z,5.73
2018-04-25T00:32:49.015Z,5.87
2018-04-25T00:35:15.425Z,6.93
2018-04-25T00:37:41.974Z,6.30
2018-04-25T00:40:08.649Z,6.60
2018-04-25T00:42:35.820Z,6.47
2018-04-25T00:45:02.255Z,7.03
2018-04-25T00:47:28.665Z,8.23
2018-04-25T00:49:55.061Z,7.70
2018-04-25T00:52:22.655Z,7.13
2018-04-25T00:54:49.849Z,7.77
2018-04-25T00:57:17.165Z,8.13
2018-04-25T00:59:44.117Z,7.57
2018-04-25T01:02:10.798Z,9.40
2018-04-25T01:04:37.278Z,7.30
2018-04-25T01:07:03.818Z,7.23
2018-04-25T01:09:31.061Z,7.43
2018-04-25T01:11:58.230Z,9.33
2018-04-25T01:14:24.559Z,9.73
2018-04-25T01:16:51.355Z,9.40
2018-04-25T01:19:17.839Z,8.30
2018-04-25T01:21:55.241Z,9.30
2018-04-25T01:24:28.801Z,8.93
2018-04-25T01:26:56.581Z,8.50
2018-04-25T01:29:24.412Z,8.87
2018-04-25T01:31:52.495Z,8.20
2018-04-25T01:37:30.897Z,9.00
2018-04-25T01:39:59.130Z,8.17
2018-04-25T01:45:43.032Z,7.50
2018-04-25T01:51:02.904Z,7.53
2018-04-25T01:53:41.486Z,9.90
2018-04-25T01:56:20.305Z,8.93
2018-04-25T01:58:54.424Z,8.53
2018-04-25T02:01:21.739Z,8.30
2018-04-25T02:03:55.546Z,8.50
2018-04-25T02:06:22.734Z,9.40
2018-04-25T02:08:49.547Z,8.90
2018-04-25T02:11:16.747Z,8.27
2018-04-25T02:13:43.602Z,8.20
2018-04-25T02:16:10.938Z,8.50
2018-04-25T02:18:38.175Z,9.43
2018-04-25T02:21:04.682Z,8.23
2018-04-25T02:23:31.797Z,9.20
2018-04-25T02:25:58.578Z,9.50
2018-04-25T02:28:25.807Z,9.20
2018-04-25T02:30:52.707Z,9.10
2018-04-25T02:33:19.849Z,10.40
2018-04-25T02:35:47.758Z,8.77
2018-04-25T02:38:14.913Z,7.80
2018-04-25T02:40:48.245Z,9.10
2018-04-25T02:43:14.672Z,8.40
2018-04-25T02:45:43.588Z,10.07
2018-04-25T02:48:10.430Z,8.40
2018-04-25T02:50:36.910Z,8.37
2018-04-25T02:53:03.647Z,8.40
2018-04-25T02:55:30.120Z,7.70
2018-04-25T02:57:56.613Z,8.00
2018-04-25T03:00:23.149Z,8.70
2018-04-25T03:02:50.543Z,9.43
2018-04-25T03:05:17.821Z,8.70
2018-04-25T03:07:44.563Z,9.00
2018-04-25T03:10:11.748Z,10.00
2018-04-25T03:12:38.287Z,9.90
2018-04-25T03:15:05.636Z,10.20
2018-04-25T03:17:33.577Z,11.33
2018-04-25T03:20:00.346Z,11.40
2018-04-25T03:22:27.471Z,11.70
2018-04-25T03:24:54.197Z,13.57
2018-04-25T03:27:20.951Z,11.40
2018-04-25T03:29:47.308Z,11.30
2018-04-25T03:32:14.878Z,11.00
2018-04-25T03:34:41.289Z,13.13
2018-04-25T03:37:07.753Z,12.03
2018-04-25T03:39:34.175Z,12.80
2018-04-25T03:42:01.361Z,13.80
2018-04-25T03:44:28.556Z,13.77
2018-04-25T03:46:55.722Z,13.47
2018-04-25T03:49:22.501Z,14.93
2018-04-25T03:51:48.922Z,14.37
2018-04-25T03:54:15.359Z,16.03
2018-04-25T03:56:41.909Z,15.57
2018-04-25T03:59:08.377Z,16.67
2018-04-25T04:01:35.537Z,18.27
2018-04-25T04:04:02.677Z,19.20
2018-04-25T04:06:29.794Z,19.87
2018-04-25T04:08:57.745Z,19.90
2018-04-25T04:11:24.538Z,22.80
2018-04-25T04:13:52.030Z,22.60
2018-04-25T04:19:03.557Z,23.70
2018-04-25T04:21:29.974Z,26.40
2018-04-25T04:23:57.202Z,27.00
2018-04-25T04:26:24.358Z,27.50
2018-04-25T04:28:50.786Z,31.60
2018-04-25T04:31:18.352Z,30.20
2018-04-25T04:33:45.568Z,31.23
2018-04-25T04:36:12.003Z,32.60
2018-04-25T04:38:38.556Z,36.90
2018-04-25T04:41:04.981Z,36.73
2018-04-25T04:43:31.405Z,34.60
2018-04-25T04:45:58.531Z,36.53
2018-04-25T04:48:25.662Z,38.10
2018-04-25T04:50:52.480Z,39.97
2018-04-25T04:53:18.847Z,38.30
2018-04-25T04:55:48.929Z,36.93
2018-04-25T04:58:17.152Z,36.57
2018-04-25T05:00:44.666Z,39.00
2018-04-25T05:03:11.930Z,37.90
2018-04-25T05:05:39.200Z,38.90
2018-04-25T05:08:06.619Z,35.90
2018-04-25T05:10:33.498Z,40.30
2018-04-25T05:13:00.410Z,41.90
2018-04-25T05:15:26.857Z,40.10
2018-04-25T05:17:54.988Z,37.30
2018-04-25T05:20:21.393Z,42.20
2018-04-25T05:22:48.700Z,41.10
2018-04-25T05:25:16.960Z,37.93
2018-04-25T05:27:44.121Z,39.10
2018-04-25T05:30:11.228Z,41.80
2018-04-25T05:32:39.446Z,41.10
2018-04-25T05:35:07.564Z,45.60
2018-04-25T05:37:37.152Z,40.77
2018-04-25T05:40:06.543Z,46.90
2018-04-25T05:42:35.017Z,49.73
2018-04-25T05:45:03.479Z,44.90
2018-04-25T05:47:31.756Z,46.13
2018-04-25T05:49:58.723Z,46.03
2018-04-25T05:52:26.229Z,38.50
2018-04-25T05:54:55.039Z,45.37
2018-04-25T05:57:22.287Z,44.57
2018-04-25T05:59:48.829Z,41.67
2018-04-25T06:02:16.458Z,48.80
2018-04-25T06:04:44.283Z,47.80
2018-04-25T06:07:13.527Z,41.20
2018-04-25T06:09:41.297Z,38.17
2018-04-25T06:12:09.676Z,46.43
2018-04-25T06:14:37.171Z,47.00
2018-04-25T06:17:05.708Z,43.40
2018-04-25T06:19:32.476Z,47.80
2018-04-25T06:22:00.568Z,41.73
2018-04-25T06:24:28.831Z,34.30
2018-04-25T06:26:57.488Z,41.63
2018-04-25T06:29:24.465Z,41.27
2018-04-25T06:31:51.988Z,43.97
2018-04-25T06:37:16.587Z,41.43
2018-04-25T06:39:44.423Z,36.50
2018-04-25T06:42:13.817Z,41.70
2018-04-25T06:44:43.107Z,39.20
2018-04-25T06:47:11.368Z,36.87
2018-04-25T06:49:39.834Z,40.07
2018-04-25T06:52:08.547Z,38.30
2018-04-25T06:54:36.776Z,35.60
2018-04-25T06:57:07.158Z,35.77
2018-04-25T06:59:36.747Z,27.57
2018-04-25T07:02:17.359Z,29.70
2018-04-25T07:07:47.585Z,34.57
2018-04-25T07:10:16.116Z,37.50
2018-04-25T07:12:42.708Z,33.13
2018-04-25T07:15:10.738Z,33.53
2018-04-25T07:17:37.304Z,32.83
2018-04-25T07:20:04.463Z,30.00
2018-04-25T07:22:32.794Z,27.17
2018-04-25T07:25:01.003Z,32.60
2018-04-25T07:27:28.872Z,17.57
2018-04-25T07:29:56.273Z,23.70
2018-04-25T07:32:23.730Z,18.87
2018-04-25T07:34:51.978Z,29.60
2018-04-25T07:37:20.161Z,23.40
2018-04-25T07:39:47.148Z,26.87
2018-04-25T07:42:16.718Z,24.50
2018-04-25T07:44:45.122Z,27.07
2018-04-25T07:47:13.307Z,25.77
2018-04-25T07:49:40.590Z,28.70
2018-04-25T07:52:08.608Z,29.67
2018-04-25T07:54:35.467Z,27.80
2018-04-25T07:57:02.738Z,21.03
2018-04-25T07:59:29.314Z,25.47
2018-04-25T08:01:56.608Z,24.60
2018-04-25T08:04:23.974Z,26.57
2018-04-25T08:06:51.519Z,26.90
2018-04-25T08:09:19.717Z,30.17
2018-04-25T08:11:58.898Z,30.87
2018-04-25T08:14:37.474Z,32.70
2018-04-25T08:17:12.842Z,35.97
2018-04-25T08:19:52.585Z,36.90
2018-04-25T08:22:20.432Z,37.17
2018-04-25T08:24:48.032Z,35.10
2018-04-25T08:27:17.675Z,32.27
2018-04-25T08:29:46.662Z,36.43
2018-04-25T08:32:19.454Z,36.27
2018-04-25T08:34:53.469Z,32.77
2018-04-25T08:37:24.561Z,35.40
2018-04-25T08:39:56.059Z,32.47
2018-04-25T08:42:23.765Z,28.83
2018-04-25T08:44:50.584Z,33.10
2018-04-25T08:47:20.141Z,31.60
2018-04-25T08:52:48.918Z,25.30
2018-04-25T08:55:20.329Z,24.30
2018-04-25T08:57:50.732Z,21.47
2018-04-25T09:00:18.824Z,18.70
2018-04-25T09:02:45.909Z,14.37
2018-04-25T09:05:15.848Z,18.77
2018-04-25T09:07:47.818Z,15.70
2018-04-25T09:10:14.644Z,19.30
2018-04-25T09:12:42.398Z,18.43
2018-04-25T09:15:09.231Z,16.50
2018-04-25T09:17:36.648Z,20.57
2018-04-25T09:20:05.011Z,18.77
2018-04-25T09:22:31.632Z,10.97
2018-04-25T09:25:00.300Z,18.40
2018-04-25T09:27:27.161Z,18.10
2018-04-25T09:29:54.990Z,17.60
2018-04-25T09:32:21.531Z,15.20
2018-04-25T09:34:48.050Z,7.50
2018-04-25T09:37:15.083Z,9.33
2018-04-25T09:39:41.929Z,8.77
2018-04-25T09:42:08.566Z,11.57
2018-04-25T09:44:38.611Z,7.90
2018-04-25T09:47:05.791Z,6.63
2018-04-25T09:49:33.265Z,7.10
2018-04-25T09:51:59.781Z,6.27
2018-04-25T09:54:27.833Z,4.07
2018-04-25T09:56:55.930Z,3.23
2018-04-25T09:59:24.079Z,3.33
2018-04-25T10:01:58.388Z,4.80
2018-04-25T10:04:25.133Z,2.90
2018-04-25T10:06:52.122Z,2.97
2018-04-25T10:09:20.491Z,3.07
2018-04-25T10:11:47.368Z,3.23
2018-04-25T10:14:14.551Z,2.40
2018-04-25T10:16:41.842Z,3.17
2018-04-25T10:19:10.926Z,3.17
2018-04-25T10:21:39.896Z,2.87
2018-04-25T10:24:07.116Z,3.67
2018-04-25T10:26:34.379Z,3.80
2018-04-25T10:29:01.909Z,4.20
2018-04-25T10:31:28.621Z,3.87
2018-04-25T10:33:55.612Z,2.93
2018-04-25T10:36:26.946Z,2.97
2018-04-25T10:38:55.771Z,4.27
2018-04-25T10:41:22.905Z,2.70
2018-04-25T10:43:51.280Z,3.57
2018-04-25T10:46:18.715Z,3.10
2018-04-25T10:48:45.457Z,3.90
2018-04-25T10:51:11.914Z,3.90
2018-04-25T10:53:40.246Z,3.80
2018-04-25T10:56:08.607Z,4.90
2018-04-25T10:58:36.298Z,3.83
2018-04-25T11:01:04.444Z,3.87
2018-04-25T11:03:31.905Z,5.10
2018-04-25T11:06:04.040Z,4.87
2018-04-25T11:08:31.534Z,3.97
2018-04-25T11:10:59.638Z,4.57
2018-04-25T11:13:26.921Z,3.97
2018-04-25T11:15:54.098Z,4.30
2018-04-25T11:18:22.213Z,4.47
2018-04-25T11:20:49.050Z,5.00
2018-04-25T11:23:17.231Z,3.27
2018-04-25T11:25:44.642Z,4.50
2018-04-25T11:28:12.854Z,3.90
2018-04-25T11:30:41.093Z,3.77
2018-04-25T11:33:09.268Z,4.20
2018-04-25T11:35:37.379Z,4.50
2018-04-25T11:38:03.825Z,4.20
2018-04-25T11:40:30.663Z,3.53
2018-04-25T11:45:38.369Z,4.37
2018-04-25T11:48:07.775Z,4.10
2018-04-25T11:50:35.916Z,3.93
2018-04-25T11:53:05.141Z,4.20
2018-04-25T11:55:31.917Z,3.50
2018-04-25T11:57:59.933Z,3.37
2018-04-25T12:00:27.525Z,2.80
2018-04-25T12:02:54.042Z,4.87
2018-04-25T12:05:21.517Z,5.73
2018-04-25T12:07:50.236Z,3.63
2018-04-25T12:10:16.816Z,5.33
2018-04-25T12:12:45.110Z,5.43
2018-04-25T12:15:13.793Z,5.80
2018-04-25T12:17:42.358Z,4.87
2018-04-25T12:20:14.826Z,5.90
2018-04-25T12:22:43.619Z,4.80
2018-04-25T12:25:12.215Z,4.60
2018-04-25T12:27:42.561Z,4.67
2018-04-25T12:30:14.988Z,5.40
2018-04-25T12:32:44.501Z,4.63
2018-04-25T12:35:15.916Z,4.83
2018-04-25T12:37:43.083Z,3.37
2018-04-25T12:40:13.146Z,4.57
2018-04-25T12:42:42.325Z,6.20
2018-04-25T12:45:10.624Z,6.83
2018-04-25T12:47:37.885Z,4.30
2018-04-25T12:52:41.367Z,9.33
2018-04-25T12:55:12.654Z,5.03
2018-04-25T12:57:41.016Z,8.50
2018-04-25T13:00:08.000Z,5.80
2018-04-25T13:02:35.921Z,7.90
2018-04-25T13:05:05.080Z,7.20
2018-04-25T13:07:40.308Z,8.17
2018-04-25T13:10:10.884Z,7.90
2018-04-25T13:12:40.213Z,8.07
2018-04-25T13:15:08.295Z,9.03
2018-04-25T13:17:40.021Z,4.27
2018-04-25T13:20:10.388Z,3.57
2018-04-25T13:22:38.808Z,3.97
2018-04-25T13:25:06.396Z,3.50
2018-04-25T13:27:42.260Z,3.80
2018-04-25T13:30:09.854Z,3.60
2018-04-25T13:32:41.093Z,4.47
2018-04-25T13:35:12.405Z,3.60
2018-04-25T13:40:15.718Z,1.90
2018-04-25T13:42:43.907Z,2.03
2018-04-25T13:45:11.672Z,1.93
2018-04-25T13:47:38.088Z,2.17
2018-04-25T13:50:06.406Z,2.10
2018-04-25T13:52:34.685Z,2.00
2018-04-25T13:55:02.737Z,1.70
2018-04-25T13:57:30.040Z,1.77
2018-04-25T13:59:58.151Z,2.30
2018-04-25T14:02:24.882Z,1.70
2018-04-25T14:04:53.058Z,1.50
2018-04-25T14:07:20.619Z,3.23
2018-04-25T14:09:47.517Z,1.10
2018-04-25T14:12:16.645Z,1.30
2018-04-25T14:14:43.113Z,1.63
2018-04-25T14:17:12.523Z,1.47
2018-04-25T14:19:44.179Z,1.70
2018-04-25T14:22:15.739Z,2.20
2018-04-25T14:24:45.872Z,1.87
2018-04-25T14:27:20.684Z,1.60
2018-04-25T14:29:47.103Z,1.60
2018-04-25T14:32:16.389Z,2.17
2018-04-25T14:34:49.893Z,2.40
2018-04-25T14:37:17.439Z,2.43
2018-04-25T14:39:55.310Z,1.70
2018-04-25T14:42:22.599Z,2.87
2018-04-25T14:44:50.739Z,2.03
2018-04-25T14:47:26.462Z,2.03
2018-04-25T14:49:55.189Z,1.50
2018-04-25T14:52:22.046Z,1.77
2018-04-25T14:54:50.322Z,1.70
2018-04-25T14:57:16.695Z,1.50
2018-04-25T14:59:44.092Z,1.90
2018-04-25T15:02:12.072Z,1.60
2018-04-25T15:04:40.347Z,1.73
2018-04-25T15:07:08.499Z,1.30
2018-04-25T15:09:35.835Z,1.63
2018-04-25T15:14:40.596Z,1.80
2018-04-25T15:17:07.112Z,1.83
2018-04-25T15:19:36.128Z,1.60
2018-04-25T15:22:03.882Z,1.87
2018-04-25T15:24:31.260Z,1.67
2018-04-25T15:26:57.809Z,1.27
2018-04-25T15:29:24.769Z,2.00
2018-04-25T15:31:52.008Z,1.90
2018-04-25T15:34:19.189Z,1.80
2018-04-25T15:36:47.325Z,2.13
2018-04-25T15:39:15.428Z,2.10
2018-04-25T15:41:43.548Z,1.90
2018-04-25T15:44:11.215Z,1.90
2018-04-25T15:46:40.141Z,1.67
2018-04-25T15:49:07.431Z,1.40
2018-04-25T15:51:34.158Z,1.27
2018-04-25T15:54:02.009Z,1.53
2018-04-25T15:56:29.833Z,1.80
2018-04-25T15:58:57.265Z,1.63
2018-04-25T16:01:24.287Z,1.30
2018-04-25T16:03:58.012Z,1.80
2018-04-25T16:06:25.389Z,1.50
2018-04-25T16:08:54.877Z,1.60
2018-04-25T16:11:22.636Z,1.43
2018-04-25T16:13:49.056Z,1.20
2018-04-25T16:16:17.996Z,1.53
2018-04-25T16:18:50.563Z,1.87
2018-04-25T16:21:21.793Z,1.67
2018-04-25T16:23:51.680Z,1.30
2018-04-25T16:26:19.933Z,2.13
2018-04-25T16:28:46.396Z,1.40
2018-04-25T16:31:12.905Z,1.30
2018-04-25T16:33:39.373Z,1.53
2018-04-25T16:36:07.014Z,1.70
2018-04-25T16:38:34.837Z,2.10
2018-04-25T16:41:08.800Z,1.63
2018-04-25T16:43:37.977Z,1.93
2018-04-25T16:46:04.729Z,1.77
2018-04-25T16:48:33.137Z,1.70
2018-04-25T16:53:38.430Z,2.00
2018-04-25T16:56:07.348Z,2.20
2018-04-25T16:58:34.453Z,1.80
2018-04-25T17:01:02.376Z,2.00
2018-04-25T17:03:30.757Z,1.97
2018-04-25T17:05:59.970Z,2.10
2018-04-25T17:08:26.769Z,1.93
2018-04-25T17:10:57.624Z,2.90
2018-04-25T17:13:27.987Z,2.00
2018-04-25T17:15:56.988Z,2.13
2018-04-25T17:18:25.035Z,1.90
2018-04-25T17:20:51.634Z,1.90
2018-04-25T17:23:19.591Z,2.10
2018-04-25T17:25:48.275Z,2.23
2018-04-25T17:28:16.377Z,2.17
2018-04-25T17:30:44.674Z,1.57
2018-04-25T17:33:13.326Z,1.70
2018-04-25T17:35:41.145Z,2.10
2018-04-25T17:38:08.198Z,2.10
2018-04-25T17:40:35.766Z,1.90
2018-04-25T17:43:07.711Z,2.00
2018-04-25T17:45:39.428Z,1.83
2018-04-25T17:48:07.982Z,1.67
2018-04-25T17:50:38.444Z,1.87
2018-04-25T17:53:07.159Z,1.37
2018-04-25T17:55:34.992Z,1.70
2018-04-25T17:58:01.545Z,1.80
2018-04-25T18:00:31.481Z,1.53
2018-04-25T18:02:58.637Z,1.70
2018-04-25T18:05:25.854Z,1.53
2018-04-25T18:07:54.501Z,2.00
2018-04-25T18:10:20.990Z,2.33
2018-04-25T18:12:47.994Z,1.50
2018-04-25T18:15:16.041Z,2.23
2018-04-25T18:17:42.991Z,2.13
2018-04-25T18:20:10.840Z,2.40
2018-04-25T18:22:38.360Z,2.10
2018-04-25T18:25:04.858Z,1.87
2018-04-25T18:27:31.902Z,2.03
2018-04-25T18:29:59.104Z,1.73
2018-04-25T18:32:26.695Z,1.83
2018-04-25T18:34:54.321Z,2.23
2018-04-25T18:37:21.617Z,2.50
2018-04-25T18:39:51.099Z,2.13
2018-04-25T18:42:18.653Z,1.90
2018-04-25T18:44:46.195Z,1.67
2018-04-25T18:47:13.595Z,2.40
2018-04-25T18:52:17.761Z,2.40
2018-04-25T18:54:44.679Z,3.63
2018-04-25T18:57:12.669Z,2.57
2018-04-25T18:59:40.025Z,2.50
2018-04-25T19:02:07.398Z,2.07
2018-04-25T19:04:33.935Z,2.50
2018-04-25T19:07:00.544Z,2.47
2018-04-25T19:09:41.644Z,2.40
2018-04-25T19:12:08.610Z,2.40
2018-04-25T19:14:39.999Z,2.40
2018-04-25T19:17:07.419Z,3.27
2018-04-25T19:19:35.891Z,2.80
2018-04-25T19:22:04.166Z,2.70
2018-04-25T19:24:31.225Z,2.70
2018-04-25T19:26:59.313Z,3.10
2018-04-25T19:29:26.270Z,2.60
2018-04-25T19:31:52.861Z,3.23
2018-04-25T19:34:21.325Z,4.17
2018-04-25T19:36:49.295Z,3.43
2018-04-25T19:39:16.573Z,3.83
2018-04-25T19:41:45.329Z,3.03
2018-04-25T19:44:19.141Z,3.87
2018-04-25T19:46:47.906Z,4.20
2018-04-25T19:49:16.053Z,3.33
2018-04-25T19:51:44.090Z,3.00
2018-04-25T19:54:18.861Z,3.10
2018-04-25T19:56:50.051Z,2.93
2018-04-25T19:59:19.128Z,3.80
2018-04-25T20:01:47.381Z,3.23
2018-04-25T20:04:15.662Z,3.70
2018-04-25T20:06:43.834Z,2.80
2018-04-25T20:09:15.331Z,3.27
2018-04-25T20:11:42.566Z,3.17
2018-04-25T20:14:09.835Z,3.90
2018-04-25T20:16:38.159Z,3.40
2018-04-25T20:19:06.105Z,3.83
2018-04-25T20:21:33.159Z,3.70
2018-04-25T20:24:00.747Z,3.33
2018-04-25T20:26:28.149Z,3.90
2018-04-25T20:28:55.112Z,4.40
2018-04-25T20:31:25.411Z,4.43
2018-04-25T20:33:54.456Z,3.90
2018-04-25T20:36:22.631Z,3.93
2018-04-25T20:38:51.369Z,3.87
2018-04-25T20:41:19.788Z,4.33
2018-04-25T20:43:49.281Z,3.60
2018-04-25T20:46:16.034Z,3.63
2018-04-25T20:48:43.058Z,3.57
2018-04-25T20:51:09.931Z,4.07
2018-04-25T20:53:36.866Z,4.17
2018-04-25T20:56:03.829Z,4.00
2018-04-25T20:58:32.859Z,4.37
2018-04-25T21:00:59.739Z,4.63
2018-04-25T21:03:28.289Z,4.10
2018-04-25T21:05:55.525Z,4.40
2018-04-25T21:08:25.370Z,4.63
2018-04-25T21:10:52.321Z,4.40
2018-04-25T21:13:18.950Z,5.10
2018-04-25T21:15:47.146Z,5.20
2018-04-25T21:18:13.708Z,4.57
2018-04-25T21:20:41.288Z,4.40
2018-04-25T21:23:07.633Z,4.83
2018-04-25T21:25:35.777Z,4.80
2018-04-25T21:30:38.308Z,4.03
2018-04-25T21:33:06.619Z,4.60
2018-04-25T21:35:34.856Z,4.17
2018-04-25T21:38:04.636Z,4.10
2018-04-25T21:40:39.078Z,4.10
2018-04-25T21:43:07.291Z,4.17
2018-04-25T21:45:40.164Z,4.50
2018-04-25T21:48:13.329Z,4.07
2018-04-25T21:50:41.684Z,3.43
2018-04-25T21:53:09.865Z,4.13
2018-04-25T21:55:40.658Z,3.70
2018-04-25T21:58:07.782Z,3.83
2018-04-25T22:00:35.996Z,2.73
2018-04-25T22:03:04.797Z,3.13
2018-04-25T22:05:31.999Z,3.20
2018-04-25T22:08:00.574Z,3.60
2018-04-25T22:10:34.597Z,3.40
2018-04-25T22:13:01.945Z,3.60
2018-04-25T22:15:28.343Z,2.90
2018-04-25T22:17:55.799Z,4.03
2018-04-25T22:23:04.115Z,3.20
2018-04-25T22:25:33.080Z,2.90
2018-04-25T22:28:01.423Z,3.17
2018-04-25T22:30:29.548Z,3.33
2018-04-25T22:32:57.941Z,3.43
2018-04-25T22:35:25.160Z,3.67
2018-04-25T22:37:51.766Z,2.87
2018-04-25T22:40:20.599Z,3.97
2018-04-25T22:42:48.799Z,3.17
2018-04-25T22:45:17.914Z,4.20
2018-04-25T22:47:45.520Z,3.43
2018-04-25T22:50:14.174Z,3.67
2018-04-25T22:52:40.586Z,2.53
2018-04-25T22:55:11.995Z,4.23
2018-04-25T22:57:39.889Z,3.27
2018-04-25T23:00:07.213Z,4.00
2018-04-25T23:02:34.525Z,3.37
2018-04-25T23:05:02.530Z,3.47
2018-04-25T23:07:31.683Z,3.67
2018-04-25T23:10:00.230Z,4.20
2018-04-25T23:12:26.674Z,3.97
2018-04-25T23:14:55.962Z,3.53
2018-04-25T23:17:22.872Z,4.53
2018-04-25T23:19:50.265Z,5.00
2018-04-25T23:22:17.081Z,4.90
2018-04-25T23:24:45.385Z,4.20
2018-04-25T23:27:13.439Z,4.40
2018-04-25T23:29:40.264Z,4.50
2018-04-25T23:32:06.821Z,3.93
2018-04-25T23:34:35.146Z,3.93
2018-04-25T23:37:02.753Z,5.13
2018-04-25T23:39:30.653Z,3.67
2018-04-25T23:41:57.913Z,4.87
2018-04-25T23:44:24.383Z,5.00
2018-04-25T23:46:50.880Z,5.50
2018-04-25T23:49:17.671Z,5.43
2018-04-25T23:51:44.143Z,6.07
2018-04-25T23:54:11.308Z,5.47
2018-04-25T23:56:38.315Z,5.93
2018-04-25T23:59:05.592Z,7.00
